Time;durP1;ratioP1;P1;durP2;ratioP2;P2;SDS_P1;SDS_P2;PMS_P1;PMS_P2;Temp;Humidity;BMP_temperature;BMP_pressure;BME280_temperature;BME280_humidity;BME280_pressure;Samples;Min_cycle;Max_cycle;Signal;HPM_P1;HPM_P2
2023/06/03 00:02:00;;;;;;;10.23;5.05;;;;;;;13.13;100.00;102304.31;5082731;28;20024;-63
2023/06/03 00:04:28;;;;;;;10.63;4.72;;;;;;;13.11;100.00;102308.81;5083547;28;20668;-61
2023/06/03 00:06:53;;;;;;;11.85;4.88;;;;;;;13.14;100.00;102310.50;5083209;28;20024;-56
2023/06/03 00:09:19;;;;;;;15.00;4.78;;;;;;;13.14;100.00;102314.03;5082133;28;20506;-59
2023/06/03 00:11:44;;;;;;;6.45;4.30;;;;;;;13.15;100.00;102312.22;5084312;28;20119;-57
2023/06/03 00:14:10;;;;;;;8.57;4.30;;;;;;;13.11;100.00;102308.81;5083907;28;20372;-54
2023/06/03 00:16:35;;;;;;;8.82;4.75;;;;;;;13.12;100.00;102314.94;5082523;28;20024;-57
2023/06/03 00:19:00;;;;;;;12.95;4.85;;;;;;;13.10;100.00;102320.25;5083026;28;20020;-58
2023/06/03 00:21:27;;;;;;;12.43;4.53;;;;;;;13.05;100.00;102316.84;5083255;28;20534;-54
2023/06/03 00:23:53;;;;;;;10.00;5.05;;;;;;;13.08;100.00;102315.91;5082189;28;20015;-58
2023/06/03 00:26:18;;;;;;;10.25;4.43;;;;;;;12.99;100.00;102320.50;5087619;28;20038;-57
2023/06/03 00:28:44;;;;;;;9.40;4.80;;;;;;;13.01;100.00;102316.03;5086906;28;20036;-58
2023/06/03 00:31:10;;;;;;;14.73;4.82;;;;;;;12.93;100.00;102317.09;5087482;28;20046;-55
2023/06/03 00:33:36;;;;;;;10.48;4.47;;;;;;;12.91;100.00;102316.28;5088158;28;20093;-57
2023/06/03 00:36:01;;;;;;;11.70;4.97;;;;;;;12.87;100.00;102313.69;5086390;28;20063;-56
2023/06/03 00:38:26;;;;;;;12.23;4.85;;;;;;;12.85;100.00;102315.47;5086601;28;20060;-60
2023/06/03 00:40:52;;;;;;;8.02;4.47;;;;;;;12.85;100.00;102317.25;5087962;28;20058;-59
2023/06/03 00:43:17;;;;;;;11.73;4.80;;;;;;;12.80;100.00;102308.53;5087445;28;20024;-58
2023/06/03 00:45:42;;;;;;;11.60;4.70;;;;;;;12.82;100.00;102304.97;5086230;28;20024;-61
2023/06/03 00:48:08;;;;;;;7.40;4.63;;;;;;;12.77;100.00;102302.41;5088104;28;20377;-57
2023/06/03 00:50:33;;;;;;;8.07;4.40;;;;;;;12.79;100.00;102302.38;5086545;28;20111;-59
2023/06/03 00:53:01;;;;;;;11.32;4.90;;;;;;;12.77;100.00;102301.56;5085380;28;20024;-58
2023/06/03 00:55:26;;;;;;;8.63;5.82;;;;;;;12.76;100.00;102302.44;5086240;28;20024;-60
2023/06/03 00:57:52;;;;;;;11.85;4.32;;;;;;;12.77;100.00;102306.84;5086689;28;20035;-57
2023/06/03 01:00:17;;;;;;;9.55;4.35;;;;;;;12.78;100.00;102308.56;5084985;28;20436;-55
2023/06/03 01:02:44;;;;;;;8.23;4.32;;;;;;;12.78;100.00;102305.94;5087040;28;20023;-59
2023/06/03 01:05:10;;;;;;;8.20;4.30;;;;;;;12.70;100.00;102306.06;5086103;28;20046;-61
2023/06/03 01:08:03;;;;;;;8.57;4.18;;;;;;;12.73;100.00;102307.78;5083998;28;20489;-59
2023/06/03 01:10:43;;;;;;;9.98;4.50;;;;;;;12.67;100.00;102307.94;5086135;28;20040;-58
2023/06/03 01:13:20;;;;;;;12.48;4.60;;;;;;;12.66;100.00;102303.50;5086800;28;20180;-57
2023/06/03 01:15:47;;;;;;;10.00;4.90;;;;;;;12.62;100.00;102303.56;5119542;22;20044;-57
2023/06/03 01:18:15;;;;;;;7.03;4.22;;;;;;;12.61;100.00;102307.13;5065947;28;20028;-61
2023/06/03 01:20:42;;;;;;;7.75;4.50;;;;;;;12.59;100.00;102303.66;5048147;28;20120;-56
2023/06/03 01:23:23;;;;;;;8.95;4.35;;;;;;;12.56;100.00;102311.66;5063322;28;20033;-59
2023/06/03 01:25:52;;;;;;;8.93;4.07;;;;;;;12.59;100.00;102308.06;5066233;28;20052;-57
2023/06/03 01:28:18;;;;;;;8.00;4.55;;;;;;;12.55;100.00;102296.66;5064352;28;20111;-59
2023/06/03 01:30:44;;;;;;;10.05;4.40;;;;;;;12.58;100.00;102304.53;5065423;28;20075;-56
2023/06/03 01:33:10;;;;;;;7.80;4.53;;;;;;;12.57;100.00;102310.72;5047382;28;20054;-57
2023/06/03 01:35:35;;;;;;;7.30;3.50;;;;;;;12.56;100.00;102309.00;5064877;28;20051;-54
2023/06/03 01:38:01;;;;;;;12.82;3.92;;;;;;;12.54;100.00;102316.06;5047779;28;20393;-60
2023/06/03 01:40:27;;;;;;;6.75;4.10;;;;;;;12.54;100.00;102315.19;5066043;28;20038;-55
2023/06/03 01:42:52;;;;;;;8.45;3.92;;;;;;;12.53;100.00;102319.63;5063945;28;20031;-57
2023/06/03 01:45:17;;;;;;;8.50;4.22;;;;;;;12.48;100.00;102322.34;5048778;28;20024;-58
2023/06/03 01:47:43;;;;;;;6.40;4.05;;;;;;;12.52;100.00;102320.50;5064704;28;20085;-58
2023/06/03 01:50:08;;;;;;;8.35;4.03;;;;;;;12.55;100.00;102320.47;5064990;28;20029;-57
2023/06/03 01:52:34;;;;;;;7.88;4.70;;;;;;;12.45;100.00;102316.25;5066882;28;20029;-57
2023/06/03 01:54:59;;;;;;;8.70;3.88;;;;;;;12.47;100.00;102317.97;5064838;28;20277;-60
2023/06/03 01:57:25;;;;;;;12.38;4.75;;;;;;;12.45;100.00;102322.41;5064365;28;20032;-57
2023/06/03 01:59:52;;;;;;;7.22;3.72;;;;;;;12.43;100.00;102324.19;5066151;28;20479;-58
2023/06/03 02:02:17;;;;;;;6.78;4.18;;;;;;;12.39;100.00;102322.50;5065421;28;20036;-57
2023/06/03 02:04:44;;;;;;;5.72;3.75;;;;;;;12.33;100.00;102320.84;5063558;28;20500;-61
2023/06/03 02:07:10;;;;;;;13.75;4.25;;;;;;;12.29;100.00;102320.94;5066627;28;20109;-56
2023/06/03 02:09:36;;;;;;;9.00;4.47;;;;;;;12.34;100.00;102319.94;5046844;28;20029;-60
2023/06/03 02:12:02;;;;;;;10.55;4.15;;;;;;;12.34;100.00;102317.31;5064006;28;20502;-53
2023/06/03 02:14:28;;;;;;;7.40;4.05;;;;;;;12.31;100.00;102313.84;5065829;28;20047;-58
2023/06/03 02:16:55;;;;;;;10.18;4.22;;;;;;;12.23;100.00;102317.50;5064855;28;20028;-57
2023/06/03 02:19:26;;;;;;;7.47;4.35;;;;;;;12.23;100.00;102316.63;5063571;28;20109;-58
2023/06/03 02:21:53;;;;;;;5.18;4.07;;;;;;;12.21;100.00;102319.28;5065534;28;20025;-58
2023/06/03 02:24:19;;;;;;;7.30;4.53;;;;;;;12.21;100.00;102305.19;5063269;28;20383;-61
2023/06/03 02:26:49;;;;;;;6.50;4.00;;;;;;;12.20;100.00;102306.09;5008605;28;20056;-56
2023/06/03 02:29:17;;;;;;;11.82;6.00;;;;;;;12.15;100.00;102303.53;5024826;28;20495;-58
2023/06/03 02:31:42;;;;;;;7.05;4.63;;;;;;;12.09;100.00;102299.25;5047242;28;20024;-60
2023/06/03 02:34:08;;;;;;;9.65;4.35;;;;;;;12.09;100.00;102296.59;5065257;28;20553;-57
2023/06/03 02:36:33;;;;;;;11.55;4.82;;;;;;;12.03;100.00;102293.13;5044624;28;20183;-60
2023/06/03 02:38:58;;;;;;;9.85;3.90;;;;;;;12.08;100.00;102300.16;5065596;28;20035;-54
2023/06/03 02:41:23;;;;;;;8.60;4.05;;;;;;;12.03;100.00;102293.13;5064984;28;20035;-57
2023/06/03 02:43:49;;;;;;;7.20;4.10;;;;;;;11.98;100.00;102298.53;5062516;28;20120;-57
2023/06/03 02:46:14;;;;;;;7.10;4.50;;;;;;;12.03;100.00;102294.03;5065605;28;20111;-58
2023/06/03 02:48:40;;;;;;;6.00;4.10;;;;;;;12.04;100.00;102293.09;5044988;28;20028;-60
2023/06/03 02:51:05;;;;;;;8.80;4.50;;;;;;;12.00;100.00;102299.34;5062426;28;20029;-58
2023/06/03 02:53:31;;;;;;;7.32;4.82;;;;;;;12.00;100.00;102305.53;5065156;28;20031;-60
2023/06/03 02:55:56;;;;;;;9.63;4.43;;;;;;;11.98;100.00;102296.72;5064290;28;20562;-58
2023/06/03 02:58:22;;;;;;;7.65;4.40;;;;;;;12.00;100.00;102299.34;5062853;28;20062;-57
2023/06/03 03:00:47;;;;;;;8.85;4.22;;;;;;;11.92;100.00;102303.91;5064457;28;20311;-55
2023/06/03 03:03:12;;;;;;;7.10;4.53;;;;;;;11.91;100.00;102302.13;5063570;28;20058;-61
2023/06/03 03:05:38;;;;;;;8.13;4.22;;;;;;;11.85;100.00;102295.19;5061967;28;20012;-59
2023/06/03 03:08:04;;;;;;;7.75;4.47;;;;;;;11.84;100.00;102294.34;5064855;28;20041;-57
2023/06/03 03:10:29;;;;;;;8.45;4.47;;;;;;;11.80;100.00;102297.91;5063596;28;20029;-58
2023/06/03 03:12:55;;;;;;;6.43;4.32;;;;;;;11.79;100.00;102296.16;5062702;28;20048;-57
2023/06/03 03:15:20;;;;;;;8.02;4.60;;;;;;;11.80;100.00;102297.03;5064935;28;20063;-57
2023/06/03 03:17:45;;;;;;;6.95;4.45;;;;;;;11.74;100.00;102298.00;5062845;28;20027;-54
2023/06/03 03:20:12;;;;;;;6.28;4.07;;;;;;;11.60;100.00;102298.22;5062871;28;20071;-53
2023/06/03 03:22:40;;;;;;;11.88;4.82;;;;;;;11.61;100.00;102303.47;5047384;28;20494;-58
2023/06/03 03:25:05;;;;;;;9.40;4.53;;;;;;;11.59;100.00;102307.88;5063180;28;20036;-59
2023/06/03 03:27:31;;;;;;;5.30;4.18;;;;;;;11.67;100.00;102301.63;5061841;28;20037;-55
2023/06/03 03:29:58;;;;;;;8.13;4.43;;;;;;;11.67;100.00;102305.16;5064351;28;20032;-58
2023/06/03 03:32:23;;;;;;;8.88;5.05;;;;;;;11.58;100.00;102303.50;5062869;28;20029;-61
2023/06/03 03:35:10;;;;;;;8.95;5.03;;;;;;;11.60;100.00;102304.38;5062150;28;20036;-59
2023/06/03 03:37:35;;;;;;;5.97;4.40;;;;;;;11.61;100.00;102303.47;5064128;28;20394;-56
2023/06/03 03:40:00;;;;;;;10.00;4.50;;;;;;;11.59;100.00;102309.69;5061299;28;20034;-59
2023/06/03 03:42:25;;;;;;;12.00;5.40;;;;;;;11.57;100.00;102307.06;5046645;28;20024;-56
2023/06/03 03:44:51;;;;;;;9.20;4.82;;;;;;;11.58;100.00;102300.88;5063616;28;20020;-57
2023/06/03 03:47:21;;;;;;;7.50;4.20;;;;;;;11.54;100.00;102307.09;5061939;28;20028;-55
2023/06/03 03:49:47;;;;;;;5.85;4.32;;;;;;;11.55;100.00;102306.19;5057587;28;20032;-57
2023/06/03 03:52:14;;;;;;;6.00;4.40;;;;;;;11.52;100.00;102302.72;5064103;28;20042;-61
2023/06/03 03:54:39;;;;;;;7.55;4.80;;;;;;;11.49;100.00;102308.91;5044457;28;20029;-56
2023/06/03 03:57:12;;;;;;;9.93;4.90;;;;;;;11.42;100.00;102315.19;5064496;28;20112;-54
2023/06/03 03:59:37;;;;;;;6.88;4.93;;;;;;;11.51;100.00;102312.41;5063562;28;20051;-59
2023/06/03 04:02:03;;;;;;;11.63;4.93;;;;;;;11.51;100.00;102309.78;5062151;28;20188;-58
2023/06/03 04:04:43;;;;;;;7.20;4.20;;;;;;;11.56;100.00;102309.72;5063753;28;20032;-60
2023/06/03 04:07:14;;;;;;;5.57;4.57;;;;;;;11.56;100.00;102310.56;5063344;28;20159;-59
2023/06/03 04:09:41;;;;;;;7.65;4.25;;;;;;;11.60;100.00;102306.13;5062565;28;20036;-56
2023/06/03 04:12:29;;;;;;;5.47;4.10;;;;;;;11.69;100.00;102310.41;5065130;28;20135;-57
2023/06/03 04:14:57;;;;;;;8.93;4.30;;;;;;;11.70;100.00;102313.03;5063472;28;20345;-58
2023/06/03 04:17:25;;;;;;;9.23;4.22;;;;;;;11.71;100.00;102311.25;5061445;28;20056;-61
2023/06/03 04:19:50;;;;;;;10.98;4.10;;;;;;;11.79;100.00;102314.66;5045545;28;20387;-55
2023/06/03 04:22:19;;;;;;;6.18;4.18;;;;;;;11.86;100.00;102307.53;5062074;28;20043;-62
2023/06/03 04:24:44;;;;;;;;;;;;;;;11.93;100.00;102310.91;5063230;28;20106;-55
2023/06/03 04:27:10;;;;;;;7.00;3.80;;;;;;;11.94;100.00;102310.00;5063674;28;19974;-61
2023/06/03 04:29:35;;;;;;;8.43;4.55;;;;;;;11.93;100.00;102316.19;5061622;28;20112;-58
2023/06/03 04:32:01;;;;;;;9.60;4.30;;;;;;;11.96;100.00;102319.69;5063516;28;20125;-59
2023/06/03 04:34:27;;;;;;;5.45;3.42;;;;;;;12.01;100.00;102315.19;5062933;28;20032;-57
2023/06/03 04:36:53;;;;;;;7.38;3.60;;;;;;;12.04;100.00;102319.53;5060917;28;20115;-57
2023/06/03 04:39:18;;;;;;;6.25;3.67;;;;;;;12.07;100.00;102313.38;5064024;28;20099;-61
2023/06/03 04:41:44;;;;;;;12.95;3.95;;;;;;;12.08;100.00;102316.00;5063026;28;20020;-54
2023/06/03 04:44:11;;;;;;;8.15;3.67;;;;;;;12.13;100.00;102314.13;5061918;28;20074;-58
2023/06/03 04:46:36;;;;;;;5.85;3.60;;;;;;;12.09;100.00;102320.38;5064024;28;20021;-54
2023/06/03 04:49:02;;;;;;;8.35;4.00;;;;;;;12.16;100.00;102307.06;5061806;28;20626;-58
2023/06/03 04:51:29;;;;;;;6.18;3.38;;;;;;;12.21;100.00;102318.41;5061622;28;20067;-57
2023/06/03 04:53:56;;;;;;;7.13;3.38;;;;;;;12.24;100.00;102318.38;5063471;28;20020;-58
2023/06/03 04:56:24;;;;;;;7.43;3.67;;;;;;;12.26;100.00;102321.88;5062859;28;20017;-57
2023/06/03 04:58:54;;;;;;;4.72;3.60;;;;;;;12.30;100.00;102318.25;5061511;28;20658;-57
2023/06/03 05:01:22;;;;;;;5.95;3.30;;;;;;;12.38;100.00;102324.28;5062013;28;20374;-58
2023/06/03 05:03:48;;;;;;;5.83;3.47;;;;;;;12.46;100.00;102318.84;5063008;28;20025;-62
2023/06/03 05:06:13;;;;;;;9.32;3.40;;;;;;;12.38;100.00;102320.78;5062170;28;20312;-59
2023/06/03 05:08:39;;;;;;;10.68;3.70;;;;;;;12.50;100.00;102320.53;5061790;28;20070;-56
2023/06/03 05:11:04;;;;;;;5.32;3.15;;;;;;;12.38;100.00;102326.06;5063269;28;20470;-58
2023/06/03 05:13:30;;;;;;;7.22;3.13;;;;;;;12.36;100.00;102328.72;5064833;28;20028;-58
2023/06/03 05:15:55;;;;;;;4.88;3.28;;;;;;;12.68;100.00;102334.34;5064453;28;20083;-60
2023/06/03 05:18:21;;;;;;;5.60;3.13;;;;;;;12.63;100.00;102328.25;5066815;28;20047;-56
2023/06/03 05:20:46;;;;;;;9.50;3.47;;;;;;;12.63;100.00;102330.91;5047379;28;20546;-61
2023/06/03 05:23:11;;;;;;;9.52;3.35;;;;;;;12.59;100.00;102334.50;5065319;28;20027;-56
2023/06/03 05:25:36;;;;;;;5.00;3.35;;;;;;;12.67;100.00;102337.00;5067064;28;20044;-56
2023/06/03 05:28:02;;;;;;;7.43;3.58;;;;;;;12.76;100.00;102342.09;5063955;28;20390;-57
2023/06/03 05:30:27;;;;;;;6.53;3.40;;;;;;;12.77;100.00;102341.22;5067049;28;20028;-57
2023/06/03 05:32:52;;;;;;;6.90;3.28;;;;;;;12.89;100.00;102340.97;5064733;28;20510;-59
2023/06/03 05:35:19;;;;;;;3.80;2.88;;;;;;;12.87;100.00;102342.78;5046416;28;20231;-59
2023/06/03 05:37:44;;;;;;;5.43;2.85;;;;;;;12.97;100.00;102346.13;5067138;28;20165;-58
2023/06/03 05:40:10;;;;;;;10.70;2.92;;;;;;;13.06;100.00;102350.34;5065677;28;20411;-58
2023/06/03 05:42:35;;;;;;;5.28;2.92;;;;;;;13.17;100.00;102351.91;5065323;28;20482;-56
2023/06/03 05:45:00;;;;;;;4.03;2.70;;;;;;;13.28;100.00;102349.91;5066201;28;20025;-60
2023/06/03 05:47:26;;;;;;;4.63;3.05;;;;;;;13.16;100.00;102350.16;5065559;28;20413;-60
2023/06/03 05:49:51;;;;;;;7.38;2.70;;;;;;;13.27;100.00;102356.09;5065025;28;20021;-57
2023/06/03 05:52:16;;;;;;;7.07;2.83;;;;;;;13.35;100.00;102356.81;5067487;28;20029;-59
2023/06/03 05:54:42;;;;;;;8.57;2.85;;;;;;;13.48;100.00;102356.53;5065590;28;20030;-59
2023/06/03 05:57:07;;;;;;;7.47;2.80;;;;;;;13.46;100.00;102353.94;5064329;28;20069;-60
2023/06/03 05:59:32;;;;;;;7.00;3.00;;;;;;;13.49;100.00;102348.59;5066692;28;20159;-57
2023/06/03 06:01:58;;;;;;;8.98;2.97;;;;;;;13.50;100.00;102354.78;5064513;28;20081;-59
2023/06/03 06:04:23;;;;;;;4.90;2.70;;;;;;;13.46;100.00;102347.78;5064478;28;20518;-55
2023/06/03 06:06:49;;;;;;;5.85;2.90;;;;;;;13.62;100.00;102343.91;5047508;28;20035;-60
2023/06/03 06:09:14;;;;;;;6.28;2.63;;;;;;;13.72;100.00;102356.94;5063339;28;20029;-58
2023/06/03 06:11:39;;;;;;;4.50;2.85;;;;;;;13.96;100.00;102351.97;5066403;28;20040;-57
2023/06/03 06:14:05;;;;;;;4.63;2.45;;;;;;;14.06;100.00;102356.13;5064340;28;20107;-56
2023/06/03 06:16:30;;;;;;;4.57;2.70;;;;;;;14.10;100.00;102347.22;5063412;28;20035;-58
2023/06/03 06:18:57;;;;;;;4.63;2.75;;;;;;;14.19;100.00;102353.19;5046615;28;20043;-59
2023/06/03 06:21:22;;;;;;;5.32;2.80;;;;;;;14.31;100.00;102352.88;5064666;28;20025;-57
2023/06/03 06:23:47;;;;;;;6.75;2.60;;;;;;;14.35;100.00;102349.25;5064351;28;20047;-57
2023/06/03 06:26:14;;;;;;;3.92;2.83;;;;;;;14.31;100.00;102352.88;5065574;28;20539;-59
2023/06/03 06:28:40;;;;;;;5.32;2.50;;;;;;;14.51;100.00;102354.16;5063880;28;20067;-61
2023/06/03 06:31:06;;;;;;;5.78;2.63;;;;;;;14.70;100.00;102351.88;5065236;28;20077;-56
2023/06/03 06:33:33;;;;;;;6.68;2.33;;;;;;;14.71;100.00;102355.38;5062457;28;20135;-59
2023/06/03 06:36:01;;;;;;;3.92;2.28;;;;;;;14.90;100.00;102356.66;5065426;28;20024;-59
2023/06/03 06:38:27;;;;;;;5.88;2.58;;;;;;;14.95;100.00;102353.88;5046463;28;20025;-58
2023/06/03 06:40:53;;;;;;;3.17;2.70;;;;;;;14.99;100.00;102354.66;5063085;28;20063;-56
2023/06/03 06:43:21;;;;;;;5.30;3.22;;;;;;;15.21;100.00;102354.03;5064893;28;20032;-60
2023/06/03 06:45:47;;;;;;;5.35;2.30;;;;;;;15.19;100.00;102347.88;5045145;28;20602;-59
2023/06/03 06:48:13;;;;;;;5.03;2.78;;;;;;;15.20;100.00;102347.00;5046833;28;20701;-62
2023/06/03 06:50:50;;;;;;;4.70;2.55;;;;;;;15.42;100.00;102341.91;5064755;28;20169;-60
2023/06/03 06:53:18;;;;;;;8.77;2.33;;;;;;;15.50;99.71;102349.66;5063291;28;20039;-58
2023/06/03 06:55:52;;;;;;;6.78;2.30;;;;;;;15.68;98.57;102347.34;5065667;28;20021;-58
2023/06/03 06:58:18;;;;;;;6.80;2.67;;;;;;;15.33;99.31;102348.38;5064022;28;20044;-60
2023/06/03 07:00:43;;;;;;;3.22;2.10;;;;;;;15.64;98.00;102350.09;5061975;28;20466;-58
2023/06/03 07:03:11;;;;;;;6.72;2.58;;;;;;;15.47;97.62;102344.44;5064948;28;20348;-58
2023/06/03 07:05:36;;;;;;;3.80;2.67;;;;;;;15.44;96.57;102349.84;5063214;28;20066;-60
2023/06/03 07:08:02;;;;;;;10.55;2.35;;;;;;;15.39;96.84;102344.66;5045201;28;20111;-56
2023/06/03 07:10:27;;;;;;;6.18;2.53;;;;;;;15.68;97.00;102342.03;5063419;28;20040;-55
2023/06/03 07:12:53;;;;;;;7.22;2.20;;;;;;;15.60;95.62;102345.78;5064394;28;20033;-61
2023/06/03 07:15:19;;;;;;;8.15;2.40;;;;;;;15.72;95.97;102349.84;5063799;28;20083;-58
2023/06/03 07:17:54;;;;;;;5.38;2.63;;;;;;;15.82;94.31;102346.88;5060986;28;20033;-59
2023/06/03 07:20:33;;;;;;;4.40;2.20;;;;;;;15.86;94.62;102346.75;5047011;28;20029;-58
2023/06/03 07:22:59;;;;;;;5.00;2.40;;;;;;;16.09;94.24;102354.91;5063375;28;20029;-60
2023/06/03 07:25:47;;;;;;;5.95;2.60;;;;;;;15.99;93.54;102359.66;5043752;28;20101;-58
2023/06/03 07:28:14;;;;;;;6.00;2.30;;;;;;;16.20;93.02;102359.88;5064465;28;20051;-62
2023/06/03 07:30:40;;;;;;;4.20;2.50;;;;;;;16.18;92.36;102357.28;5045692;28;20385;-58
2023/06/03 07:33:10;;;;;;;4.07;2.17;;;;;;;16.17;94.18;102356.38;5061531;28;20161;-58
2023/06/03 07:35:35;;;;;;;5.70;2.17;;;;;;;16.20;91.48;102359.88;5062631;28;20021;-59
2023/06/03 07:38:04;;;;;;;7.32;2.20;;;;;;;16.20;90.78;102362.53;5061200;28;20017;-56
2023/06/03 07:40:41;;;;;;;5.82;2.22;;;;;;;16.29;90.10;102354.25;5064244;28;20162;-59
2023/06/03 07:43:08;;;;;;;7.53;2.45;;;;;;;16.48;90.45;102358.94;5062641;28;20344;-57
2023/06/03 07:45:34;;;;;;;2.70;2.17;;;;;;;16.54;88.00;102351.63;5060186;28;20025;-57
2023/06/03 07:48:02;;;;;;;5.45;2.00;;;;;;;16.63;89.72;102357.53;5063412;28;20036;-56
2023/06/03 07:50:27;;;;;;;3.38;1.77;;;;;;;16.88;88.33;102360.16;5063178;28;20089;-60
2023/06/03 07:53:01;;;;;;;4.28;2.25;;;;;;;16.68;87.97;102366.22;5060058;28;20021;-58
2023/06/03 07:55:37;;;;;;;3.60;1.95;;;;;;;17.02;85.94;102372.13;5049153;28;20016;-57
2023/06/03 07:58:02;;;;;;;4.63;2.03;;;;;;;17.11;83.67;102368.28;5062991;28;20036;-57
2023/06/03 08:00:27;;;;;;;7.95;2.05;;;;;;;17.20;84.00;102367.06;5055876;28;20013;-59
2023/06/03 08:02:53;;;;;;;4.28;2.17;;;;;;;17.27;84.67;102360.56;5063500;28;20365;-54
2023/06/03 08:05:33;;;;;;;6.45;2.20;;;;;;;17.25;87.93;102368.63;5063189;28;20356;-61
2023/06/03 08:07:59;;;;;;;4.75;1.80;;;;;;;17.53;85.58;102364.03;5059987;28;20127;-57
2023/06/03 08:10:25;;;;;;;4.10;2.30;;;;;;;17.59;83.15;102363.78;5063642;28;20040;-57
2023/06/03 08:12:50;;;;;;;8.68;2.15;;;;;;;17.47;83.02;102364.25;5059424;28;20336;-59
2023/06/03 08:15:25;;;;;;;4.85;1.73;;;;;;;17.63;81.80;102368.06;5063851;28;20044;-56
2023/06/03 08:17:51;;;;;;;5.28;1.83;;;;;;;17.52;82.36;102365.81;5062296;28;20348;-59
2023/06/03 08:20:16;;;;;;;3.45;2.30;;;;;;;17.54;82.87;102366.63;5059146;28;20039;-54
2023/06/03 08:22:43;;;;;;;3.70;1.80;;;;;;;17.80;82.69;102371.84;5064490;28;20024;-57
2023/06/03 08:25:09;;;;;;;6.28;1.85;;;;;;;17.76;79.89;102363.09;5063375;28;20016;-58
2023/06/03 08:27:36;;;;;;;4.88;1.90;;;;;;;17.99;79.38;102368.44;5059129;28;20039;-61
2023/06/03 08:30:03;;;;;;;5.10;1.67;;;;;;;18.08;77.75;102364.50;5063473;28;20108;-59
2023/06/03 08:32:35;;;;;;;3.55;1.58;;;;;;;18.37;78.06;102360.66;5062957;28;20094;-55
2023/06/03 08:35:00;;;;;;;2.05;1.73;;;;;;;18.50;75.93;102366.34;5060704;28;20159;-55
2023/06/03 08:37:26;;;;;;;3.78;1.85;;;;;;;18.60;71.67;102356.09;5063346;28;20446;-59
2023/06/03 08:39:52;;;;;;;6.78;1.95;;;;;;;18.72;71.08;102357.38;5062888;28;20485;-56
2023/06/03 08:42:22;;;;;;;4.60;1.67;;;;;;;18.92;71.30;102352.94;5060052;28;20031;-63
2023/06/03 08:45:05;;;;;;;8.95;1.88;;;;;;;18.83;70.58;102356.91;5063844;28;20378;-55
2023/06/03 08:47:31;;;;;;;3.30;1.58;;;;;;;19.04;67.28;102348.84;5064759;28;20490;-58
2023/06/03 08:50:12;;;;;;;3.30;1.70;;;;;;;19.03;66.41;102345.28;5065083;28;20124;-58
2023/06/03 08:52:38;;;;;;;2.40;1.45;;;;;;;19.19;66.10;102342.84;5067295;28;20411;-61
2023/06/03 08:55:10;;;;;;;2.85;1.45;;;;;;;18.94;66.99;102333.22;5065807;28;20024;-59
2023/06/03 08:57:43;;;;;;;3.70;1.70;;;;;;;18.84;63.68;102347.94;5046525;28;20032;-59
2023/06/03 09:00:10;;;;;;;3.03;1.52;;;;;;;18.96;65.46;102353.69;5050089;28;20036;-55
2023/06/03 09:02:36;;;;;;;4.85;1.80;;;;;;;19.19;64.38;102348.19;5048413;28;20498;-58
2023/06/03 09:05:01;;;;;;;5.15;1.83;;;;;;;18.94;61.98;102353.75;5063842;28;20016;-56
2023/06/03 09:07:28;;;;;;;9.50;1.83;;;;;;;19.04;61.41;102344.38;5067253;28;20379;-58
2023/06/03 09:09:54;;;;;;;5.47;1.67;;;;;;;19.06;59.95;102344.31;5048375;28;20025;-58
2023/06/03 09:12:20;;;;;;;3.17;1.67;;;;;;;19.30;60.59;102338.78;5063012;28;20045;-54
2023/06/03 09:14:46;;;;;;;5.35;1.60;;;;;;;19.03;54.99;102339.09;5048229;28;20051;-57
2023/06/03 09:17:12;;;;;;;10.20;1.80;;;;;;;19.28;54.87;102346.88;5066723;28;20125;-58
2023/06/03 09:19:37;;;;;;;5.63;1.70;;;;;;;19.42;56.27;102343.53;5064549;28;20084;-54
2023/06/03 09:22:03;;;;;;;4.97;1.50;;;;;;;19.54;56.28;102342.06;5066661;28;20111;-62
2023/06/03 09:24:28;;;;;;;4.78;1.38;;;;;;;19.65;53.25;102349.59;5064521;28;20079;-61
2023/06/03 09:26:54;;;;;;;4.60;1.30;;;;;;;19.58;54.06;102342.81;5064333;28;20071;-59
2023/06/03 09:29:20;;;;;;;7.05;1.42;;;;;;;19.84;52.67;102346.03;5066624;28;20533;-57
2023/06/03 09:31:47;;;;;;;3.20;1.48;;;;;;;19.97;53.45;102353.41;5065057;28;20032;-58
2023/06/03 09:34:14;;;;;;;5.63;1.67;;;;;;;19.90;54.08;102353.72;5063892;28;20029;-58
2023/06/03 09:36:44;;;;;;;1.63;1.20;;;;;;;19.99;50.93;102352.41;5049405;28;20052;-62
2023/06/03 09:39:10;;;;;;;8.80;1.63;;;;;;;19.88;51.95;102344.03;5066016;28;20096;-57
2023/06/03 09:41:36;;;;;;;3.00;1.38;;;;;;;19.41;53.13;102352.50;5063262;28;20082;-58
2023/06/03 09:44:05;;;;;;;5.90;1.52;;;;;;;19.54;53.14;102346.56;5066724;28;20056;-55
2023/06/03 09:46:32;;;;;;;3.95;1.88;;;;;;;19.44;53.54;102336.31;5065598;28;20568;-56
2023/06/03 09:49:11;;;;;;;4.88;1.77;;;;;;;19.88;55.05;102334.22;5061240;28;20501;-63
2023/06/03 09:51:55;;;;;;;4.28;1.48;;;;;;;19.98;51.95;102331.94;5050882;28;20073;-58
2023/06/03 09:54:25;;;;;;;2.83;1.55;;;;;;;19.94;52.29;102333.91;5065054;28;20021;-59
2023/06/03 09:56:51;;;;;;;2.53;1.40;;;;;;;19.86;50.97;102330.75;5062529;28;20017;-58
2023/06/03 09:59:20;;;;;;;6.63;1.52;;;;;;;20.35;54.20;102339.06;5065768;28;20024;-58
2023/06/03 10:01:47;;;;;;;5.32;1.30;;;;;;;20.52;51.31;102338.16;5064829;28;20031;-60
2023/06/03 10:04:20;;;;;;;5.30;1.58;;;;;;;20.77;51.88;102331.53;5062044;28;20013;-62
2023/06/03 10:06:46;;;;;;;2.72;1.75;;;;;;;20.42;47.66;102338.69;5065875;28;20028;-59
2023/06/03 10:09:19;;;;;;;9.43;1.30;;;;;;;20.08;48.15;102340.41;5065761;28;20021;-59
2023/06/03 10:11:49;;;;;;;5.65;1.42;;;;;;;20.27;48.03;102339.47;5060654;28;20179;-59
2023/06/03 10:14:15;;;;;;;7.05;1.50;;;;;;;20.35;47.89;102341.75;5065527;28;20170;-55
2023/06/03 10:16:41;;;;;;;3.22;1.45;;;;;;;20.55;51.24;102332.66;5064385;28;20312;-59
2023/06/03 10:19:06;;;;;;;5.78;1.23;;;;;;;20.61;47.93;102337.69;5041350;28;20029;-58
2023/06/03 10:21:32;;;;;;;3.65;1.58;;;;;;;20.79;49.07;102338.53;5056487;28;20033;-59
2023/06/03 10:23:59;;;;;;;2.97;1.38;;;;;;;20.84;48.15;102333.78;5059704;28;20081;-59
2023/06/03 10:26:25;;;;;;;6.10;1.50;;;;;;;20.44;47.38;102334.09;5055907;28;20024;-61
2023/06/03 10:28:51;;;;;;;5.47;1.50;;;;;;;20.58;49.46;102344.09;5065846;28;20025;-58
2023/06/03 10:31:17;;;;;;;4.85;1.88;;;;;;;20.49;47.15;102338.34;5045666;28;20108;-58
2023/06/03 10:33:43;;;;;;;1.52;1.10;;;;;;;20.45;45.75;102327.81;5050335;28;20029;-56
2023/06/03 10:36:09;;;;;;;2.83;1.27;;;;;;;20.84;48.16;102335.59;5045472;28;20024;-60
2023/06/03 10:38:36;;;;;;;3.15;1.00;;;;;;;21.09;48.79;102334.28;5056633;28;20399;-56
2023/06/03 10:41:01;;;;;;;3.17;1.30;;;;;;;20.56;45.68;102334.41;5046843;28;20049;-61
2023/06/03 10:43:27;;;;;;;4.32;1.60;;;;;;;20.81;51.73;102335.75;5056068;28;20029;-58
2023/06/03 10:45:53;;;;;;;4.35;1.70;;;;;;;20.94;46.80;102344.91;5026496;28;20112;-60
2023/06/03 10:48:21;;;;;;;9.57;1.40;;;;;;;20.86;45.15;102343.56;5043999;28;20247;-61
2023/06/03 10:50:46;;;;;;;3.50;1.55;;;;;;;21.24;46.68;102342.41;5027208;28;20059;-61
2023/06/03 10:53:12;;;;;;;2.13;1.23;;;;;;;21.57;44.87;102344.16;5045152;28;20511;-58
2023/06/03 10:56:02;;;;;;;2.00;1.20;;;;;;;21.57;46.19;102330.75;5045290;28;20337;-59
2023/06/03 10:58:28;;;;;;;2.47;1.35;;;;;;;21.38;44.45;102331.81;5045290;28;20307;-61
2023/06/03 11:01:04;;;;;;;10.38;1.40;;;;;;;21.38;48.41;102334.50;5045311;28;20104;-56
2023/06/03 11:03:31;;;;;;;3.15;1.10;;;;;;;21.62;45.31;102333.16;5043493;28;20546;-59
2023/06/03 11:06:19;;;;;;;5.30;1.38;;;;;;;21.94;44.62;102331.31;5044507;28;20033;-56
2023/06/03 11:09:04;;;;;;;7.68;1.40;;;;;;;21.81;43.53;102333.88;5052377;28;20024;-63
2023/06/03 11:11:39;;;;;;;3.60;1.20;;;;;;;21.88;41.15;102331.69;5063565;28;20072;-61
2023/06/03 11:14:05;;;;;;;10.18;1.27;;;;;;;21.79;42.02;102340.28;5063302;28;20090;-59
2023/06/03 11:16:30;;;;;;;4.53;1.15;;;;;;;22.00;41.01;102337.28;5064089;28;20021;-59
2023/06/03 11:19:28;;;;;;;2.42;1.00;;;;;;;22.03;43.65;102337.13;5037656;28;20078;-62
2023/06/03 11:21:53;;;;;;;2.90;1.20;;;;;;;21.91;41.26;102327.97;5043723;28;20044;-60